sensor_id;sensor_type;location;lat;lon;timestamp;P1;durP1;ratioP1;P2;durP2;ratioP2
64065;SDS011;50318;54.760;9.408;2023-01-30T00:01:00;49.72;;;14.77;;
64065;SDS011;50318;54.760;9.408;2023-01-30T00:03:27;41.20;;;15.02;;
64065;SDS011;50318;54.760;9.408;2023-01-30T00:05:53;51.95;;;14.80;;
64065;SDS011;50318;54.760;9.408;2023-01-30T00:08:20;56.15;;;15.25;;
64065;SDS011;50318;54.760;9.408;2023-01-30T00:10:50;44.35;;;13.07;;
64065;SDS011;50318;54.760;9.408;2023-01-30T00:13:17;48.75;;;14.10;;
64065;SDS011;50318;54.760;9.408;2023-01-30T00:15:46;48.83;;;13.77;;
64065;SDS011;50318;54.760;9.408;2023-01-30T00:18:15;47.30;;;13.43;;
64065;SDS011;50318;54.760;9.408;2023-01-30T00:20:41;50.60;;;14.07;;
64065;SDS011;50318;54.760;9.408;2023-01-30T00:23:08;48.38;;;14.02;;
64065;SDS011;50318;54.760;9.408;2023-01-30T00:25:37;50.22;;;13.13;;
64065;SDS011;50318;54.760;9.408;2023-01-30T00:28:03;49.63;;;13.38;;
64065;SDS011;50318;54.760;9.408;2023-01-30T00:30:30;43.17;;;13.40;;
64065;SDS011;50318;54.760;9.408;2023-01-30T00:32:57;42.28;;;12.77;;
64065;SDS011;50318;54.760;9.408;2023-01-30T00:35:24;41.58;;;12.25;;
64065;SDS011;50318;54.760;9.408;2023-01-30T00:37:51;33.72;;;11.38;;
64065;SDS011;50318;54.760;9.408;2023-01-30T00:40:18;43.72;;;12.32;;
64065;SDS011;50318;54.760;9.408;2023-01-30T00:42:50;40.22;;;11.07;;
64065;SDS011;50318;54.760;9.408;2023-01-30T00:45:17;41.88;;;11.32;;
64065;SDS011;50318;54.760;9.408;2023-01-30T00:47:44;38.20;;;11.52;;
64065;SDS011;50318;54.760;9.408;2023-01-30T00:50:11;36.92;;;11.27;;
64065;SDS011;50318;54.760;9.408;2023-01-30T00:52:37;45.13;;;11.35;;
64065;SDS011;50318;54.760;9.408;2023-01-30T00:55:10;33.95;;;10.30;;
64065;SDS011;50318;54.760;9.408;2023-01-30T00:57:36;37.10;;;10.35;;
64065;SDS011;50318;54.760;9.408;2023-01-30T01:00:06;38.22;;;10.60;;
64065;SDS011;50318;54.760;9.408;2023-01-30T01:02:33;30.55;;;10.40;;
64065;SDS011;50318;54.760;9.408;2023-01-30T01:04:59;26.48;;;8.88;;
64065;SDS011;50318;54.760;9.408;2023-01-30T01:07:26;29.50;;;8.45;;
64065;SDS011;50318;54.760;9.408;2023-01-30T01:09:58;33.97;;;9.90;;
64065;SDS011;50318;54.760;9.408;2023-01-30T01:12:27;32.40;;;8.43;;
64065;SDS011;50318;54.760;9.408;2023-01-30T01:14:53;28.20;;;8.82;;
64065;SDS011;50318;54.760;9.408;2023-01-30T01:17:22;26.80;;;7.72;;
64065;SDS011;50318;54.760;9.408;2023-01-30T01:19:48;32.25;;;8.10;;
64065;SDS011;50318;54.760;9.408;2023-01-30T01:22:17;22.85;;;7.93;;
64065;SDS011;50318;54.760;9.408;2023-01-30T01:24:46;25.55;;;7.22;;
64065;SDS011;50318;54.760;9.408;2023-01-30T01:27:14;24.60;;;6.90;;
64065;SDS011;50318;54.760;9.408;2023-01-30T01:29:43;24.50;;;6.60;;
64065;SDS011;50318;54.760;9.408;2023-01-30T01:32:12;31.25;;;6.53;;
64065;SDS011;50318;54.760;9.408;2023-01-30T01:34:42;34.38;;;6.43;;
64065;SDS011;50318;54.760;9.408;2023-01-30T01:37:10;38.67;;;6.07;;
64065;SDS011;50318;54.760;9.408;2023-01-30T01:39:44;39.53;;;6.95;;
64065;SDS011;50318;54.760;9.408;2023-01-30T01:42:14;45.65;;;5.97;;
64065;SDS011;50318;54.760;9.408;2023-01-30T01:44:57;40.75;;;6.30;;
64065;SDS011;50318;54.760;9.408;2023-01-30T01:47:31;36.67;;;6.43;;
64065;SDS011;50318;54.760;9.408;2023-01-30T01:49:59;40.78;;;6.47;;
64065;SDS011;50318;54.760;9.408;2023-01-30T01:52:27;41.50;;;7.63;;
64065;SDS011;50318;54.760;9.408;2023-01-30T01:54:58;44.63;;;7.45;;
64065;SDS011;50318;54.760;9.408;2023-01-30T01:57:34;44.13;;;7.43;;
64065;SDS011;50318;54.760;9.408;2023-01-30T02:00:12;47.50;;;6.38;;
64065;SDS011;50318;54.760;9.408;2023-01-30T02:02:43;48.13;;;6.93;;
64065;SDS011;50318;54.760;9.408;2023-01-30T02:05:22;55.53;;;7.30;;
64065;SDS011;50318;54.760;9.408;2023-01-30T02:07:57;50.42;;;7.25;;
64065;SDS011;50318;54.760;9.408;2023-01-30T02:13:25;58.97;;;7.22;;
64065;SDS011;50318;54.760;9.408;2023-01-30T02:15:54;43.13;;;7.07;;
64065;SDS011;50318;54.760;9.408;2023-01-30T02:18:23;60.53;;;6.95;;
64065;SDS011;50318;54.760;9.408;2023-01-30T02:32:39;57.65;;;7.63;;
64065;SDS011;50318;54.760;9.408;2023-01-30T02:43:58;48.38;;;7.13;;
64065;SDS011;50318;54.760;9.408;2023-01-30T02:49:28;59.35;;;6.95;;
64065;SDS011;50318;54.760;9.408;2023-01-30T02:51:55;62.00;;;7.40;;
64065;SDS011;50318;54.760;9.408;2023-01-30T02:54:24;55.53;;;7.82;;
64065;SDS011;50318;54.760;9.408;2023-01-30T02:56:57;52.47;;;7.25;;
64065;SDS011;50318;54.760;9.408;2023-01-30T02:59:41;52.25;;;6.75;;
64065;SDS011;50318;54.760;9.408;2023-01-30T03:15:53;45.80;;;6.53;;
64065;SDS011;50318;54.760;9.408;2023-01-30T03:18:50;48.42;;;6.85;;
64065;SDS011;50318;54.760;9.408;2023-01-30T03:21:44;47.00;;;6.53;;
64065;SDS011;50318;54.760;9.408;2023-01-30T03:24:38;44.67;;;6.20;;
64065;SDS011;50318;54.760;9.408;2023-01-30T03:27:28;42.00;;;6.05;;
64065;SDS011;50318;54.760;9.408;2023-01-30T03:30:22;42.75;;;6.32;;
64065;SDS011;50318;54.760;9.408;2023-01-30T03:33:08;44.78;;;7.00;;
64065;SDS011;50318;54.760;9.408;2023-01-30T03:35:36;49.40;;;6.45;;
64065;SDS011;50318;54.760;9.408;2023-01-30T03:38:10;50.50;;;6.00;;
64065;SDS011;50318;54.760;9.408;2023-01-30T03:40:36;49.53;;;6.72;;
64065;SDS011;50318;54.760;9.408;2023-01-30T03:43:03;47.17;;;7.40;;
64065;SDS011;50318;54.760;9.408;2023-01-30T03:45:29;43.00;;;6.35;;
64065;SDS011;50318;54.760;9.408;2023-01-30T03:47:55;52.72;;;6.57;;
64065;SDS011;50318;54.760;9.408;2023-01-30T03:50:21;44.55;;;6.65;;
64065;SDS011;50318;54.760;9.408;2023-01-30T03:52:48;52.45;;;7.32;;
64065;SDS011;50318;54.760;9.408;2023-01-30T03:55:17;44.70;;;6.75;;
64065;SDS011;50318;54.760;9.408;2023-01-30T03:57:43;66.80;;;7.93;;
64065;SDS011;50318;54.760;9.408;2023-01-30T04:00:13;57.25;;;8.55;;
64065;SDS011;50318;54.760;9.408;2023-01-30T04:02:42;66.43;;;8.07;;
64065;SDS011;50318;54.760;9.408;2023-01-30T04:05:16;58.65;;;7.93;;
64065;SDS011;50318;54.760;9.408;2023-01-30T04:07:53;53.90;;;7.90;;
64065;SDS011;50318;54.760;9.408;2023-01-30T04:10:21;57.25;;;8.57;;
64065;SDS011;50318;54.760;9.408;2023-01-30T04:12:48;53.60;;;7.47;;
64065;SDS011;50318;54.760;9.408;2023-01-30T04:15:23;57.47;;;8.45;;
64065;SDS011;50318;54.760;9.408;2023-01-30T04:18:10;56.88;;;8.55;;
64065;SDS011;50318;54.760;9.408;2023-01-30T04:20:39;68.88;;;8.32;;
64065;SDS011;50318;54.760;9.408;2023-01-30T04:23:05;52.15;;;7.70;;
64065;SDS011;50318;54.760;9.408;2023-01-30T04:25:32;60.17;;;8.32;;
64065;SDS011;50318;54.760;9.408;2023-01-30T04:27:59;59.85;;;7.07;;
64065;SDS011;50318;54.760;9.408;2023-01-30T04:30:30;56.45;;;7.50;;
64065;SDS011;50318;54.760;9.408;2023-01-30T04:33:14;63.55;;;7.97;;
64065;SDS011;50318;54.760;9.408;2023-01-30T04:35:57;63.92;;;8.35;;
64065;SDS011;50318;54.760;9.408;2023-01-30T04:38:26;63.55;;;8.13;;
64065;SDS011;50318;54.760;9.408;2023-01-30T04:40:54;57.55;;;7.90;;
64065;SDS011;50318;54.760;9.408;2023-01-30T04:46:06;61.08;;;8.40;;
64065;SDS011;50318;54.760;9.408;2023-01-30T04:48:32;59.92;;;7.95;;
64065;SDS011;50318;54.760;9.408;2023-01-30T04:51:02;55.83;;;8.20;;
64065;SDS011;50318;54.760;9.408;2023-01-30T04:53:28;54.95;;;7.68;;
64065;SDS011;50318;54.760;9.408;2023-01-30T04:56:00;56.83;;;7.82;;
64065;SDS011;50318;54.760;9.408;2023-01-30T04:58:26;65.60;;;8.75;;
64065;SDS011;50318;54.760;9.408;2023-01-30T05:00:53;57.47;;;8.40;;
64065;SDS011;50318;54.760;9.408;2023-01-30T05:03:19;52.30;;;8.32;;
64065;SDS011;50318;54.760;9.408;2023-01-30T05:05:48;61.13;;;8.10;;
64065;SDS011;50318;54.760;9.408;2023-01-30T05:08:14;56.53;;;9.13;;
64065;SDS011;50318;54.760;9.408;2023-01-30T05:10:41;44.88;;;7.72;;
64065;SDS011;50318;54.760;9.408;2023-01-30T05:13:07;59.60;;;7.93;;
64065;SDS011;50318;54.760;9.408;2023-01-30T05:15:34;57.20;;;8.15;;
64065;SDS011;50318;54.760;9.408;2023-01-30T05:18:00;54.13;;;7.80;;
64065;SDS011;50318;54.760;9.408;2023-01-30T05:20:27;64.93;;;8.27;;
64065;SDS011;50318;54.760;9.408;2023-01-30T05:22:54;52.45;;;7.35;;
64065;SDS011;50318;54.760;9.408;2023-01-30T05:25:20;57.88;;;8.55;;
64065;SDS011;50318;54.760;9.408;2023-01-30T05:27:46;64.53;;;8.27;;
64065;SDS011;50318;54.760;9.408;2023-01-30T05:30:15;55.58;;;7.47;;
64065;SDS011;50318;54.760;9.408;2023-01-30T05:32:41;62.20;;;8.85;;
64065;SDS011;50318;54.760;9.408;2023-01-30T05:35:13;53.15;;;8.88;;
64065;SDS011;50318;54.760;9.408;2023-01-30T05:37:41;57.45;;;7.78;;
64065;SDS011;50318;54.760;9.408;2023-01-30T05:40:10;59.42;;;9.15;;
64065;SDS011;50318;54.760;9.408;2023-01-30T05:42:40;57.15;;;11.63;;
64065;SDS011;50318;54.760;9.408;2023-01-30T05:45:09;54.90;;;8.98;;
64065;SDS011;50318;54.760;9.408;2023-01-30T05:47:35;56.22;;;9.35;;
64065;SDS011;50318;54.760;9.408;2023-01-30T05:50:02;55.55;;;8.82;;
64065;SDS011;50318;54.760;9.408;2023-01-30T05:52:30;63.75;;;8.88;;
64065;SDS011;50318;54.760;9.408;2023-01-30T05:54:59;56.15;;;8.38;;
64065;SDS011;50318;54.760;9.408;2023-01-30T05:57:29;47.97;;;8.27;;
64065;SDS011;50318;54.760;9.408;2023-01-30T05:59:55;54.17;;;8.00;;
64065;SDS011;50318;54.760;9.408;2023-01-30T06:02:21;52.03;;;8.93;;
64065;SDS011;50318;54.760;9.408;2023-01-30T06:04:47;62.67;;;9.63;;
64065;SDS011;50318;54.760;9.408;2023-01-30T06:07:13;49.53;;;8.57;;
64065;SDS011;50318;54.760;9.408;2023-01-30T06:09:43;51.55;;;7.80;;
64065;SDS011;50318;54.760;9.408;2023-01-30T06:12:09;47.15;;;7.88;;
64065;SDS011;50318;54.760;9.408;2023-01-30T06:14:35;54.85;;;8.25;;
64065;SDS011;50318;54.760;9.408;2023-01-30T06:17:01;56.20;;;8.48;;
64065;SDS011;50318;54.760;9.408;2023-01-30T06:19:27;54.05;;;8.10;;
64065;SDS011;50318;54.760;9.408;2023-01-30T06:21:53;49.75;;;8.27;;
64065;SDS011;50318;54.760;9.408;2023-01-30T06:24:20;52.97;;;8.50;;
64065;SDS011;50318;54.760;9.408;2023-01-30T06:26:46;53.88;;;8.30;;
64065;SDS011;50318;54.760;9.408;2023-01-30T06:29:12;45.13;;;7.93;;
64065;SDS011;50318;54.760;9.408;2023-01-30T06:31:38;56.85;;;7.97;;
64065;SDS011;50318;54.760;9.408;2023-01-30T06:34:05;54.97;;;8.10;;
64065;SDS011;50318;54.760;9.408;2023-01-30T06:36:31;58.85;;;8.43;;
64065;SDS011;50318;54.760;9.408;2023-01-30T06:38:57;49.95;;;8.27;;
64065;SDS011;50318;54.760;9.408;2023-01-30T06:41:23;60.67;;;8.95;;
64065;SDS011;50318;54.760;9.408;2023-01-30T06:43:50;51.65;;;8.82;;
64065;SDS011;50318;54.760;9.408;2023-01-30T06:46:16;54.50;;;8.50;;
64065;SDS011;50318;54.760;9.408;2023-01-30T06:48:42;49.53;;;7.53;;
64065;SDS011;50318;54.760;9.408;2023-01-30T06:51:08;56.30;;;7.30;;
64065;SDS011;50318;54.760;9.408;2023-01-30T06:53:34;49.65;;;8.27;;
64065;SDS011;50318;54.760;9.408;2023-01-30T06:56:01;53.28;;;8.13;;
64065;SDS011;50318;54.760;9.408;2023-01-30T06:58:27;48.88;;;8.27;;
64065;SDS011;50318;54.760;9.408;2023-01-30T07:00:53;54.65;;;9.68;;
64065;SDS011;50318;54.760;9.408;2023-01-30T07:03:22;51.35;;;8.30;;
64065;SDS011;50318;54.760;9.408;2023-01-30T07:05:49;48.83;;;8.75;;
64065;SDS011;50318;54.760;9.408;2023-01-30T07:08:15;56.80;;;8.95;;
64065;SDS011;50318;54.760;9.408;2023-01-30T07:10:42;15.05;;;3.42;;
64065;SDS011;50318;54.760;9.408;2023-01-30T07:13:09;21.00;;;3.35;;
64065;SDS011;50318;54.760;9.408;2023-01-30T07:15:35;24.95;;;3.50;;
64065;SDS011;50318;54.760;9.408;2023-01-30T07:18:01;16.92;;;2.47;;
64065;SDS011;50318;54.760;9.408;2023-01-30T07:20:27;14.82;;;2.53;;
64065;SDS011;50318;54.760;9.408;2023-01-30T07:22:54;13.93;;;2.33;;
64065;SDS011;50318;54.760;9.408;2023-01-30T07:25:21;15.07;;;2.35;;
64065;SDS011;50318;54.760;9.408;2023-01-30T07:27:52;14.50;;;2.60;;
64065;SDS011;50318;54.760;9.408;2023-01-30T07:30:20;15.38;;;2.50;;
64065;SDS011;50318;54.760;9.408;2023-01-30T07:32:50;19.83;;;2.88;;
64065;SDS011;50318;54.760;9.408;2023-01-30T07:35:17;21.48;;;2.95;;
64065;SDS011;50318;54.760;9.408;2023-01-30T07:37:44;19.50;;;3.30;;
64065;SDS011;50318;54.760;9.408;2023-01-30T07:40:11;18.35;;;3.22;;
64065;SDS011;50318;54.760;9.408;2023-01-30T07:42:38;14.02;;;2.75;;
64065;SDS011;50318;54.760;9.408;2023-01-30T07:45:04;17.52;;;2.38;;
64065;SDS011;50318;54.760;9.408;2023-01-30T07:47:30;14.18;;;1.95;;
64065;SDS011;50318;54.760;9.408;2023-01-30T07:49:57;13.93;;;2.40;;
64065;SDS011;50318;54.760;9.408;2023-01-30T07:52:23;13.50;;;2.20;;
64065;SDS011;50318;54.760;9.408;2023-01-30T07:54:49;15.25;;;2.45;;
64065;SDS011;50318;54.760;9.408;2023-01-30T07:57:15;18.23;;;2.20;;
64065;SDS011;50318;54.760;9.408;2023-01-30T07:59:41;17.52;;;2.78;;
64065;SDS011;50318;54.760;9.408;2023-01-30T08:02:08;24.70;;;3.75;;
64065;SDS011;50318;54.760;9.408;2023-01-30T08:04:35;24.67;;;3.40;;
64065;SDS011;50318;54.760;9.408;2023-01-30T08:07:02;23.58;;;3.60;;
64065;SDS011;50318;54.760;9.408;2023-01-30T08:09:28;29.80;;;4.18;;
64065;SDS011;50318;54.760;9.408;2023-01-30T08:11:54;22.95;;;3.85;;
64065;SDS011;50318;54.760;9.408;2023-01-30T08:14:20;24.88;;;4.25;;
64065;SDS011;50318;54.760;9.408;2023-01-30T08:16:46;20.55;;;3.55;;
64065;SDS011;50318;54.760;9.408;2023-01-30T08:19:12;19.75;;;3.70;;
64065;SDS011;50318;54.760;9.408;2023-01-30T08:21:39;28.27;;;3.60;;
64065;SDS011;50318;54.760;9.408;2023-01-30T08:24:05;30.92;;;4.43;;
64065;SDS011;50318;54.760;9.408;2023-01-30T08:26:32;25.73;;;4.00;;
64065;SDS011;50318;54.760;9.408;2023-01-30T08:28:58;27.80;;;4.72;;
64065;SDS011;50318;54.760;9.408;2023-01-30T08:31:24;28.38;;;4.55;;
64065;SDS011;50318;54.760;9.408;2023-01-30T08:33:50;28.90;;;5.60;;
64065;SDS011;50318;54.760;9.408;2023-01-30T08:36:16;37.90;;;6.07;;
64065;SDS011;50318;54.760;9.408;2023-01-30T08:38:43;46.45;;;6.20;;
64065;SDS011;50318;54.760;9.408;2023-01-30T08:41:09;40.63;;;5.95;;
64065;SDS011;50318;54.760;9.408;2023-01-30T08:43:35;48.45;;;6.57;;
64065;SDS011;50318;54.760;9.408;2023-01-30T08:46:02;35.65;;;5.63;;
64065;SDS011;50318;54.760;9.408;2023-01-30T08:48:29;35.55;;;6.50;;
64065;SDS011;50318;54.760;9.408;2023-01-30T08:50:55;39.28;;;5.75;;
64065;SDS011;50318;54.760;9.408;2023-01-30T08:53:22;37.63;;;6.18;;
64065;SDS011;50318;54.760;9.408;2023-01-30T08:55:49;40.72;;;6.20;;
64065;SDS011;50318;54.760;9.408;2023-01-30T08:58:19;43.55;;;6.28;;
64065;SDS011;50318;54.760;9.408;2023-01-30T09:00:46;44.45;;;6.22;;
64065;SDS011;50318;54.760;9.408;2023-01-30T09:03:13;45.75;;;7.43;;
64065;SDS011;50318;54.760;9.408;2023-01-30T09:05:39;48.58;;;8.00;;
64065;SDS011;50318;54.760;9.408;2023-01-30T09:08:06;47.80;;;7.45;;
64065;SDS011;50318;54.760;9.408;2023-01-30T09:10:32;56.33;;;9.00;;
64065;SDS011;50318;54.760;9.408;2023-01-30T09:12:59;55.58;;;8.52;;
64065;SDS011;50318;54.760;9.408;2023-01-30T09:15:25;54.45;;;7.97;;
64065;SDS011;50318;54.760;9.408;2023-01-30T09:17:51;50.30;;;8.07;;
64065;SDS011;50318;54.760;9.408;2023-01-30T09:20:17;39.55;;;7.07;;
64065;SDS011;50318;54.760;9.408;2023-01-30T09:22:43;42.65;;;5.78;;
64065;SDS011;50318;54.760;9.408;2023-01-30T09:25:09;40.45;;;5.63;;
64065;SDS011;50318;54.760;9.408;2023-01-30T09:27:36;36.63;;;5.57;;
64065;SDS011;50318;54.760;9.408;2023-01-30T09:30:02;38.08;;;6.03;;
64065;SDS011;50318;54.760;9.408;2023-01-30T09:32:29;35.05;;;5.88;;
64065;SDS011;50318;54.760;9.408;2023-01-30T09:34:55;39.75;;;5.75;;
64065;SDS011;50318;54.760;9.408;2023-01-30T09:37:22;40.78;;;6.22;;
64065;SDS011;50318;54.760;9.408;2023-01-30T09:39:48;39.00;;;6.05;;
64065;SDS011;50318;54.760;9.408;2023-01-30T09:47:48;29.38;;;4.65;;
64065;SDS011;50318;54.760;9.408;2023-01-30T09:53:05;28.38;;;4.22;;
64065;SDS011;50318;54.760;9.408;2023-01-30T09:56:03;29.98;;;4.60;;
64065;SDS011;50318;54.760;9.408;2023-01-30T09:58:44;35.97;;;5.47;;
64065;SDS011;50318;54.760;9.408;2023-01-30T10:01:17;23.88;;;4.78;;
64065;SDS011;50318;54.760;9.408;2023-01-30T10:06:28;28.02;;;5.00;;
64065;SDS011;50318;54.760;9.408;2023-01-30T10:09:09;31.25;;;5.45;;
64065;SDS011;50318;54.760;9.408;2023-01-30T10:11:56;33.95;;;5.45;;
64065;SDS011;50318;54.760;9.408;2023-01-30T10:17:45;38.53;;;6.60;;
64065;SDS011;50318;54.760;9.408;2023-01-30T10:20:37;32.63;;;6.38;;
64065;SDS011;50318;54.760;9.408;2023-01-30T10:26:33;26.13;;;5.03;;
64065;SDS011;50318;54.760;9.408;2023-01-30T10:29:01;24.63;;;4.53;;
64065;SDS011;50318;54.760;9.408;2023-01-30T10:31:33;32.88;;;5.88;;
64065;SDS011;50318;54.760;9.408;2023-01-30T10:34:18;34.28;;;5.57;;
64065;SDS011;50318;54.760;9.408;2023-01-30T10:36:55;32.38;;;5.35;;
64065;SDS011;50318;54.760;9.408;2023-01-30T10:39:33;25.33;;;4.93;;
64065;SDS011;50318;54.760;9.408;2023-01-30T10:42:14;27.33;;;4.30;;
64065;SDS011;50318;54.760;9.408;2023-01-30T10:44:46;21.58;;;3.70;;
64065;SDS011;50318;54.760;9.408;2023-01-30T10:49:53;26.10;;;3.72;;
64065;SDS011;50318;54.760;9.408;2023-01-30T10:52:27;27.02;;;4.50;;
64065;SDS011;50318;54.760;9.408;2023-01-30T11:03:40;30.85;;;4.88;;
64065;SDS011;50318;54.760;9.408;2023-01-30T11:06:14;34.08;;;5.88;;
64065;SDS011;50318;54.760;9.408;2023-01-30T11:08:43;31.90;;;5.88;;
64065;SDS011;50318;54.760;9.408;2023-01-30T11:14:01;24.77;;;4.40;;
64065;SDS011;50318;54.760;9.408;2023-01-30T11:19:14;13.15;;;2.20;;
64065;SDS011;50318;54.760;9.408;2023-01-30T11:21:46;8.90;;;1.88;;
64065;SDS011;50318;54.760;9.408;2023-01-30T11:24:15;8.77;;;1.58;;
64065;SDS011;50318;54.760;9.408;2023-01-30T11:26:44;10.15;;;1.65;;
64065;SDS011;50318;54.760;9.408;2023-01-30T11:31:55;11.15;;;1.90;;
64065;SDS011;50318;54.760;9.408;2023-01-30T11:34:25;8.52;;;2.00;;
64065;SDS011;50318;54.760;9.408;2023-01-30T11:36:51;9.75;;;1.77;;
64065;SDS011;50318;54.760;9.408;2023-01-30T11:39:19;7.82;;;1.83;;
64065;SDS011;50318;54.760;9.408;2023-01-30T11:44:29;10.82;;;2.60;;
64065;SDS011;50318;54.760;9.408;2023-01-30T11:47:06;16.40;;;3.08;;
64065;SDS011;50318;54.760;9.408;2023-01-30T11:49:35;15.15;;;3.20;;
64065;SDS011;50318;54.760;9.408;2023-01-30T11:52:06;20.30;;;3.95;;
64065;SDS011;50318;54.760;9.408;2023-01-30T11:54:33;21.08;;;4.30;;
64065;SDS011;50318;54.760;9.408;2023-01-30T11:57:04;30.13;;;4.97;;
64065;SDS011;50318;54.760;9.408;2023-01-30T12:05:06;19.67;;;3.13;;
64065;SDS011;50318;54.760;9.408;2023-01-30T12:07:42;29.23;;;4.70;;
64065;SDS011;50318;54.760;9.408;2023-01-30T12:10:28;29.90;;;5.47;;
64065;SDS011;50318;54.760;9.408;2023-01-30T12:12:57;33.35;;;5.93;;
64065;SDS011;50318;54.760;9.408;2023-01-30T12:15:31;38.53;;;6.25;;
64065;SDS011;50318;54.760;9.408;2023-01-30T12:23:37;42.35;;;6.75;;
64065;SDS011;50318;54.760;9.408;2023-01-30T12:26:20;41.35;;;7.40;;
64065;SDS011;50318;54.760;9.408;2023-01-30T12:28:54;36.30;;;6.45;;
64065;SDS011;50318;54.760;9.408;2023-01-30T12:31:30;22.35;;;4.50;;
64065;SDS011;50318;54.760;9.408;2023-01-30T12:39:05;25.75;;;4.88;;
64065;SDS011;50318;54.760;9.408;2023-01-30T12:56:05;32.17;;;5.30;;
64065;SDS011;50318;54.760;9.408;2023-01-30T13:15:22;38.20;;;7.05;;
64065;SDS011;50318;54.760;9.408;2023-01-30T13:26:32;34.95;;;6.22;;
64065;SDS011;50318;54.760;9.408;2023-01-30T13:29:04;30.92;;;5.65;;
64065;SDS011;50318;54.760;9.408;2023-01-30T13:31:41;27.98;;;5.50;;
64065;SDS011;50318;54.760;9.408;2023-01-30T13:34:25;33.17;;;5.47;;
64065;SDS011;50318;54.760;9.408;2023-01-30T13:37:03;30.98;;;5.22;;
64065;SDS011;50318;54.760;9.408;2023-01-30T13:43:01;28.80;;;5.55;;
64065;SDS011;50318;54.760;9.408;2023-01-30T13:45:36;39.15;;;6.75;;
64065;SDS011;50318;54.760;9.408;2023-01-30T13:50:53;35.83;;;6.60;;
64065;SDS011;50318;54.760;9.408;2023-01-30T14:01:10;41.20;;;7.55;;
64065;SDS011;50318;54.760;9.408;2023-01-30T14:03:37;37.35;;;7.85;;
64065;SDS011;50318;54.760;9.408;2023-01-30T14:06:05;42.42;;;7.57;;
64065;SDS011;50318;54.760;9.408;2023-01-30T14:08:40;36.13;;;7.32;;
64065;SDS011;50318;54.760;9.408;2023-01-30T14:14:25;34.38;;;7.90;;
64065;SDS011;50318;54.760;9.408;2023-01-30T14:17:06;45.78;;;8.75;;
64065;SDS011;50318;54.760;9.408;2023-01-30T14:22:03;47.42;;;8.05;;
64065;SDS011;50318;54.760;9.408;2023-01-30T14:27:47;44.70;;;8.18;;
64065;SDS011;50318;54.760;9.408;2023-01-30T14:32:59;45.78;;;9.48;;
64065;SDS011;50318;54.760;9.408;2023-01-30T14:35:28;44.33;;;8.85;;
64065;SDS011;50318;54.760;9.408;2023-01-30T14:40:38;60.78;;;10.35;;
64065;SDS011;50318;54.760;9.408;2023-01-30T14:45:53;51.85;;;9.00;;
64065;SDS011;50318;54.760;9.408;2023-01-30T14:51:34;48.53;;;9.63;;
64065;SDS011;50318;54.760;9.408;2023-01-30T15:21:10;55.60;;;9.50;;
64065;SDS011;50318;54.760;9.408;2023-01-30T15:31:56;60.17;;;9.65;;
64065;SDS011;50318;54.760;9.408;2023-01-30T15:34:30;47.38;;;8.05;;
64065;SDS011;50318;54.760;9.408;2023-01-30T15:36:57;43.65;;;8.18;;
64065;SDS011;50318;54.760;9.408;2023-01-30T15:39:24;40.88;;;8.00;;
64065;SDS011;50318;54.760;9.408;2023-01-30T15:41:52;50.35;;;9.13;;
64065;SDS011;50318;54.760;9.408;2023-01-30T15:44:30;52.83;;;8.85;;
64065;SDS011;50318;54.760;9.408;2023-01-30T15:52:43;46.90;;;9.02;;
64065;SDS011;50318;54.760;9.408;2023-01-30T15:55:28;50.70;;;8.45;;
64065;SDS011;50318;54.760;9.408;2023-01-30T15:57:58;45.13;;;8.23;;
64065;SDS011;50318;54.760;9.408;2023-01-30T16:00:31;36.28;;;6.88;;
64065;SDS011;50318;54.760;9.408;2023-01-30T16:03:00;46.78;;;7.88;;
64065;SDS011;50318;54.760;9.408;2023-01-30T16:05:28;41.92;;;8.07;;
64065;SDS011;50318;54.760;9.408;2023-01-30T16:07:55;33.55;;;7.20;;
64065;SDS011;50318;54.760;9.408;2023-01-30T16:10:23;33.20;;;7.20;;
64065;SDS011;50318;54.760;9.408;2023-01-30T16:12:53;40.53;;;7.45;;
64065;SDS011;50318;54.760;9.408;2023-01-30T16:15:24;37.63;;;8.05;;
64065;SDS011;50318;54.760;9.408;2023-01-30T16:17:58;36.67;;;7.60;;
64065;SDS011;50318;54.760;9.408;2023-01-30T16:20:40;32.47;;;7.38;;
64065;SDS011;50318;54.760;9.408;2023-01-30T16:23:21;35.72;;;8.10;;
64065;SDS011;50318;54.760;9.408;2023-01-30T16:26:04;35.60;;;7.85;;
64065;SDS011;50318;54.760;9.408;2023-01-30T16:28:34;33.08;;;6.60;;
64065;SDS011;50318;54.760;9.408;2023-01-30T16:31:02;32.20;;;7.13;;
64065;SDS011;50318;54.760;9.408;2023-01-30T16:33:31;38.53;;;7.97;;
64065;SDS011;50318;54.760;9.408;2023-01-30T16:35:59;32.72;;;7.40;;
64065;SDS011;50318;54.760;9.408;2023-01-30T16:38:35;37.17;;;8.02;;
64065;SDS011;50318;54.760;9.408;2023-01-30T16:41:04;31.80;;;7.10;;
64065;SDS011;50318;54.760;9.408;2023-01-30T16:43:31;24.85;;;5.53;;
64065;SDS011;50318;54.760;9.408;2023-01-30T16:49:08;36.45;;;6.88;;
64065;SDS011;50318;54.760;9.408;2023-01-30T16:51:41;38.45;;;7.47;;
64065;SDS011;50318;54.760;9.408;2023-01-30T16:54:42;41.63;;;7.20;;
64065;SDS011;50318;54.760;9.408;2023-01-30T16:57:01;41.95;;;7.05;;
64065;SDS011;50318;54.760;9.408;2023-01-30T16:59:29;43.97;;;7.88;;
64065;SDS011;50318;54.760;9.408;2023-01-30T17:01:58;36.97;;;7.35;;
64065;SDS011;50318;54.760;9.408;2023-01-30T17:04:28;32.05;;;6.68;;
64065;SDS011;50318;54.760;9.408;2023-01-30T17:06:58;26.77;;;6.35;;
64065;SDS011;50318;54.760;9.408;2023-01-30T17:09:36;36.08;;;6.95;;
64065;SDS011;50318;54.760;9.408;2023-01-30T17:14:59;33.42;;;7.25;;
64065;SDS011;50318;54.760;9.408;2023-01-30T17:17:42;44.22;;;7.40;;
64065;SDS011;50318;54.760;9.408;2023-01-30T17:20:10;38.38;;;7.55;;
64065;SDS011;50318;54.760;9.408;2023-01-30T17:22:40;34.53;;;6.88;;
64065;SDS011;50318;54.760;9.408;2023-01-30T17:27:58;33.95;;;7.10;;
64065;SDS011;50318;54.760;9.408;2023-01-30T17:30:24;45.60;;;7.75;;
64065;SDS011;50318;54.760;9.408;2023-01-30T17:32:51;40.85;;;8.48;;
64065;SDS011;50318;54.760;9.408;2023-01-30T17:35:18;42.53;;;8.00;;
64065;SDS011;50318;54.760;9.408;2023-01-30T17:37:44;36.55;;;7.20;;
64065;SDS011;50318;54.760;9.408;2023-01-30T17:40:17;48.55;;;9.38;;
64065;SDS011;50318;54.760;9.408;2023-01-30T17:42:54;40.47;;;6.40;;
64065;SDS011;50318;54.760;9.408;2023-01-30T17:45:21;47.40;;;8.35;;
64065;SDS011;50318;54.760;9.408;2023-01-30T17:47:47;48.95;;;9.80;;
64065;SDS011;50318;54.760;9.408;2023-01-30T17:50:24;45.15;;;10.80;;
64065;SDS011;50318;54.760;9.408;2023-01-30T17:52:55;46.25;;;11.18;;
64065;SDS011;50318;54.760;9.408;2023-01-30T17:55:24;46.60;;;9.65;;
64065;SDS011;50318;54.760;9.408;2023-01-30T17:57:50;48.67;;;10.05;;
64065;SDS011;50318;54.760;9.408;2023-01-30T18:00:40;48.15;;;8.48;;
64065;SDS011;50318;54.760;9.408;2023-01-30T18:03:15;54.33;;;10.07;;
64065;SDS011;50318;54.760;9.408;2023-01-30T18:05:41;48.05;;;9.35;;
64065;SDS011;50318;54.760;9.408;2023-01-30T18:08:12;48.55;;;8.93;;
64065;SDS011;50318;54.760;9.408;2023-01-30T18:10:38;44.25;;;8.30;;
64065;SDS011;50318;54.760;9.408;2023-01-30T18:13:07;37.25;;;7.07;;
64065;SDS011;50318;54.760;9.408;2023-01-30T18:18:26;37.70;;;7.43;;
64065;SDS011;50318;54.760;9.408;2023-01-30T18:20:52;42.83;;;8.63;;
64065;SDS011;50318;54.760;9.408;2023-01-30T18:23:18;35.63;;;7.50;;
64065;SDS011;50318;54.760;9.408;2023-01-30T18:25:47;39.67;;;7.75;;
64065;SDS011;50318;54.760;9.408;2023-01-30T18:28:14;31.52;;;7.25;;
64065;SDS011;50318;54.760;9.408;2023-01-30T18:30:40;32.88;;;7.13;;
64065;SDS011;50318;54.760;9.408;2023-01-30T18:33:06;33.65;;;6.78;;
64065;SDS011;50318;54.760;9.408;2023-01-30T18:35:32;39.80;;;7.78;;